Time;durP1;ratioP1;P1;durP2;ratioP2;P2;SDS_P1;SDS_P2;PMS_P1;PMS_P2;Temp;Humidity;BMP_temperature;BMP_pressure;BME280_temperature;BME280_humidity;BME280_pressure;Samples;Min_cycle;Max_cycle;Signal;HPM_P1;HPM_P2
2021/07/18 00:01:59;;;;;;;14.47;11.43;;;;;;;21.04;100.00;98867.38;1719193;83;20956;-69
2021/07/18 00:04:26;;;;;;;13.58;11.25;;;;;;;21.00;100.00;98868.16;1719203;83;21003;-69
2021/07/18 00:06:54;;;;;;;12.55;10.88;;;;;;;20.98;100.00;98870.94;1719259;82;20942;-69
2021/07/18 00:09:22;;;;;;;11.78;10.65;;;;;;;20.97;100.00;98859.22;1719195;82;21085;-69
2021/07/18 00:11:50;;;;;;;14.38;9.95;;;;;;;20.95;100.00;98854.07;1719266;82;21467;-69
2021/07/18 00:14:16;;;;;;;15.55;10.10;;;;;;;20.95;100.00;98859.36;1719105;82;20943;-69
2021/07/18 00:16:44;;;;;;;14.18;10.68;;;;;;;20.95;100.00;98855.39;1719221;82;21007;-69
2021/07/18 00:19:12;;;;;;;11.43;10.28;;;;;;;20.95;100.00;98850.59;1719392;83;21030;-69
2021/07/18 00:21:38;;;;;;;12.95;10.75;;;;;;;20.93;100.00;98854.70;1719156;82;20959;-69
2021/07/18 00:24:05;;;;;;;11.33;9.75;;;;;;;20.91;100.00;98851.36;1719519;83;21138;-69
2021/07/18 00:26:32;;;;;;;16.87;11.03;;;;;;;20.87;100.00;98857.08;1719091;83;21042;-69
2021/07/18 00:28:58;;;;;;;11.90;10.20;;;;;;;20.82;100.00;98854.02;1719404;83;20956;-69
2021/07/18 00:31:26;;;;;;;10.93;9.83;;;;;;;20.77;100.00;98851.83;1719271;82;21424;-69
2021/07/18 00:33:53;;;;;;;13.80;11.22;;;;;;;20.72;100.00;98843.48;1719260;83;21003;-69
2021/07/18 00:36:19;;;;;;;14.93;10.23;;;;;;;20.70;100.00;98848.56;1719064;82;21133;-69
2021/07/18 00:38:47;;;;;;;12.90;10.53;;;;;;;20.67;100.00;98850.17;1719177;82;20963;-69
2021/07/18 00:41:14;;;;;;;12.88;10.30;;;;;;;20.65;100.00;98851.63;1719497;82;21042;-69
2021/07/18 00:43:40;;;;;;;16.35;10.48;;;;;;;20.62;100.00;98844.81;1719306;83;20978;-69
2021/07/18 00:46:06;;;;;;;11.22;10.13;;;;;;;20.57;100.00;98840.95;1719550;83;20951;-69
2021/07/18 00:48:33;;;;;;;15.20;9.53;;;;;;;20.54;100.00;98835.95;1719478;83;21059;-69
2021/07/18 00:50:59;;;;;;;15.90;10.03;;;;;;;20.53;100.00;98839.56;1719140;82;21073;-69
2021/07/18 00:53:26;;;;;;;19.82;10.18;;;;;;;20.51;100.00;98836.23;1719038;82;21451;-69
2021/07/18 00:55:55;;;;;;;11.80;9.50;;;;;;;20.48;100.00;98834.70;1719120;83;21034;-69
2021/07/18 00:58:22;;;;;;;21.55;10.23;;;;;;;20.47;100.00;98833.52;1719228;82;21078;-69
2021/07/18 01:00:50;;;;;;;13.72;10.32;;;;;;;20.45;100.00;98836.78;1719217;82;20983;-69
2021/07/18 01:03:16;;;;;;;12.30;11.05;;;;;;;20.44;100.00;98840.40;1719316;83;21423;-69
2021/07/18 01:05:43;;;;;;;14.53;11.25;;;;;;;20.42;100.00;98839.22;1704910;83;21015;-69
2021/07/18 01:08:10;;;;;;;12.43;9.90;;;;;;;20.41;100.00;98834.91;1719454;83;21006;-69
2021/07/18 01:10:39;;;;;;;13.15;10.35;;;;;;;20.41;100.00;98838.03;1719169;83;20999;-69
2021/07/18 01:13:05;;;;;;;13.70;10.38;;;;;;;20.41;100.00;98840.67;1719136;83;21084;-69
2021/07/18 01:15:31;;;;;;;12.25;11.05;;;;;;;20.42;100.00;98844.98;1719124;82;21022;-69
2021/07/18 01:17:58;;;;;;;12.07;10.78;;;;;;;20.42;100.00;98850.27;1719121;83;20947;-69
2021/07/18 01:20:25;;;;;;;14.78;10.05;;;;;;;20.43;100.00;98845.33;1719308;83;20995;-69
2021/07/18 01:22:51;;;;;;;11.68;10.53;;;;;;;20.43;100.00;98848.81;1719247;82;21102;-69
2021/07/18 01:25:18;;;;;;;10.60;9.50;;;;;;;20.44;100.00;98852.28;1719420;83;21441;-69
2021/07/18 01:27:44;;;;;;;12.53;10.10;;;;;;;20.42;100.00;98856.38;1719178;83;20987;-69
2021/07/18 01:30:13;;;;;;;11.78;10.63;;;;;;;20.41;100.00;98861.31;1719381;83;20975;-69
2021/07/18 01:32:42;;;;;;;18.37;10.82;;;;;;;20.37;100.00;98862.59;1719118;83;21003;-69
2021/07/18 01:35:11;;;;;;;12.55;10.93;;;;;;;20.36;100.00;98878.06;1719502;83;21428;-69
2021/07/18 01:37:38;;;;;;;16.20;10.72;;;;;;;20.34;100.00;98889.73;1719062;83;21130;-69
2021/07/18 01:40:10;;;;;;;12.65;10.78;;;;;;;20.31;100.00;98890.84;1719180;83;20987;-69
2021/07/18 01:42:40;;;;;;;13.30;9.83;;;;;;;20.30;100.00;98893.14;1719146;83;21467;-69
2021/07/18 01:45:08;;;;;;;12.65;11.45;;;;;;;20.27;100.00;98886.80;1719164;82;21427;-69
2021/07/18 01:47:35;;;;;;;13.72;11.18;;;;;;;20.24;100.00;98880.48;1719233;83;21007;-69
2021/07/18 01:50:03;;;;;;;14.98;11.75;;;;;;;20.23;100.00;98876.17;1719128;82;21045;-69
2021/07/18 01:52:29;;;;;;;16.02;11.28;;;;;;;20.23;100.00;98858.52;1719014;83;20951;-69
2021/07/18 01:54:57;;;;;;;15.32;11.25;;;;;;;20.23;100.00;98855.88;1711059;83;21456;-69
2021/07/18 01:57:24;;;;;;;11.85;10.85;;;;;;;20.27;100.00;98851.99;1710873;82;21031;-69
2021/07/18 01:59:50;;;;;;;14.10;10.68;;;;;;;20.28;100.00;98860.27;1711047;83;20963;-69
2021/07/18 02:02:17;;;;;;;13.93;11.63;;;;;;;20.28;100.00;98861.59;1711006;83;21201;-69
2021/07/18 02:04:47;;;;;;;18.07;11.90;;;;;;;20.27;100.00;98867.00;1711090;84;21503;-69
2021/07/18 02:07:13;;;;;;;11.73;10.63;;;;;;;20.26;100.00;98854.77;1711224;84;21055;-69
2021/07/18 02:09:40;;;;;;;11.73;10.72;;;;;;;20.26;100.00;98850.33;1711187;83;20971;-69
2021/07/18 02:12:07;;;;;;;14.85;11.03;;;;;;;20.28;100.00;98842.27;1711070;83;20991;-69
2021/07/18 02:14:35;;;;;;;13.40;11.43;;;;;;;20.31;100.00;98836.70;1711222;84;21053;-69
2021/07/18 02:17:01;;;;;;;19.20;12.20;;;;;;;20.33;100.00;98853.25;1710979;84;21455;-69
2021/07/18 02:19:29;;;;;;;18.60;11.22;;;;;;;20.35;100.00;98853.95;1711175;83;20959;-69
2021/07/18 02:21:57;;;;;;;15.43;11.60;;;;;;;20.38;100.00;98847.59;1711428;82;21436;-69
2021/07/18 02:24:23;;;;;;;15.48;10.72;;;;;;;20.41;100.00;98851.23;1711157;83;21043;-69
2021/07/18 02:26:51;;;;;;;15.80;11.68;;;;;;;20.44;100.00;98843.88;1711154;83;21141;-69
2021/07/18 02:29:17;;;;;;;13.55;11.15;;;;;;;20.48;100.00;98843.11;1711351;82;20960;-69
2021/07/18 02:31:45;;;;;;;17.40;12.45;;;;;;;20.55;100.00;98843.73;1711087;83;20991;-69
2021/07/18 02:34:12;;;;;;;12.25;10.88;;;;;;;20.63;100.00;98846.97;1711393;83;21546;-69
2021/07/18 02:36:40;;;;;;;15.58;11.35;;;;;;;20.75;100.00;98857.74;1711119;82;20956;-69
2021/07/18 02:39:06;;;;;;;15.43;11.05;;;;;;;20.88;100.00;98848.17;1711231;83;21894;-69
2021/07/18 02:41:35;;;;;;;14.05;11.55;;;;;;;21.05;100.00;98855.34;1710948;83;21039;-69
2021/07/18 02:44:07;;;;;;;14.03;11.50;;;;;;;21.24;100.00;98854.47;1711523;83;20956;-69
2021/07/18 02:46:35;;;;;;;18.05;11.80;;;;;;;21.45;100.00;98852.91;1711171;84;21004;-69
2021/07/18 02:49:01;;;;;;;15.10;10.43;;;;;;;21.72;100.00;98858.68;1711603;83;21003;-69
2021/07/18 02:51:28;;;;;;;18.67;11.00;;;;;;;21.95;100.00;98851.49;1711011;83;21236;-69
2021/07/18 02:53:54;;;;;;;17.02;12.03;;;;;;;22.22;100.00;98855.89;1714532;82;21621;-69
2021/07/18 02:56:21;;;;;;;18.30;11.25;;;;;;;22.50;100.00;98841.23;1719200;83;20955;-69
2021/07/18 02:58:47;;;;;;;12.88;11.60;;;;;;;22.80;100.00;98841.28;1719284;83;20995;-69
2021/07/18 03:01:13;;;;;;;19.02;11.75;;;;;;;23.08;100.00;98837.98;1719482;82;21506;-69
2021/07/18 03:03:40;;;;;;;18.98;11.05;;;;;;;23.39;100.00;98847.06;1719296;83;21052;-69
2021/07/18 03:06:07;;;;;;;13.03;10.53;;;;;;;23.69;100.00;98840.41;1719304;83;21488;-69
2021/07/18 03:08:34;;;;;;;44.45;12.10;;;;;;;23.99;100.00;98838.95;1719305;83;21002;-69
2021/07/18 03:11:00;;;;;;;16.87;11.00;;;;;;;24.30;100.00;98837.87;1719282;82;21430;-69
2021/07/18 03:13:28;;;;;;;14.45;11.30;;;;;;;24.60;100.00;98835.01;1719492;83;46552;-69
2021/07/18 03:15:55;;;;;;;33.65;13.45;;;;;;;24.87;100.00;98834.64;1719301;83;21124;-69
2021/07/18 03:18:22;;;;;;;18.07;12.13;;;;;;;25.18;100.00;98836.59;1719275;83;21031;-69
2021/07/18 03:20:48;;;;;;;16.57;12.13;;;;;;;25.47;100.00;98837.30;1719455;83;20963;-70
2021/07/18 03:23:15;;;;;;;17.25;11.93;;;;;;;25.76;100.00;98843.34;1719398;83;21035;-70
2021/07/18 03:25:43;;;;;;;21.68;11.97;;;;;;;25.98;100.00;98845.21;1719315;82;21066;-70
2021/07/18 03:28:09;;;;;;;18.80;11.88;;;;;;;26.14;100.00;98857.09;1719803;83;21109;-69
2021/07/18 03:30:35;;;;;;;22.93;11.73;;;;;;;26.30;100.00;98860.16;1719196;83;21483;-69
2021/07/18 03:33:02;;;;;;;12.53;10.82;;;;;;;26.55;100.00;98854.96;1719202;82;21034;-70
2021/07/18 03:35:29;;;;;;;12.13;10.95;;;;;;;26.85;100.00;98855.00;1719165;83;21007;-70
2021/07/18 03:37:55;;;;;;;15.18;11.90;;;;;;;27.09;100.00;98858.28;1719201;83;21002;-70
2021/07/18 03:40:22;;;;;;;14.35;11.03;;;;;;;27.30;100.00;98864.22;1719298;82;22290;-70
2021/07/18 03:42:48;;;;;;;12.50;10.45;;;;;;;27.51;100.00;98866.13;1719631;82;20979;-70
2021/07/18 03:45:15;;;;;;;19.60;12.20;;;;;;;27.62;100.00;98854.16;1719192;82;21031;-70
2021/07/18 03:47:41;;;;;;;19.87;12.10;;;;;;;27.81;100.00;98852.22;1719265;82;21443;-70
2021/07/18 03:50:10;;;;;;;22.58;11.68;;;;;;;28.09;100.00;98850.99;1719145;83;20971;-70
2021/07/18 03:52:36;;;;;;;11.70;10.50;;;;;;;28.45;100.00;98854.95;1719270;82;21483;-70
2021/07/18 03:55:06;;;;;;;22.55;11.88;;;;;;;28.73;100.00;98852.31;1719242;83;20995;-70
2021/07/18 03:57:32;;;;;;;13.25;11.50;;;;;;;28.95;100.00;98851.27;1719161;83;21003;-70
2021/07/18 03:59:59;;;;;;;18.75;11.53;;;;;;;29.19;100.00;98855.30;1719465;82;21031;-70
2021/07/18 04:02:25;;;;;;;17.12;12.50;;;;;;;29.50;100.00;98852.20;1719372;83;20979;-69
2021/07/18 04:04:51;;;;;;;19.75;11.93;;;;;;;29.76;100.00;98859.53;1719227;83;23279;-69
2021/07/18 04:07:18;;;;;;;16.02;11.00;;;;;;;30.01;100.00;98863.33;1719107;83;20983;-69
2021/07/18 04:09:46;;;;;;;17.30;12.35;;;;;;;30.08;100.00;98868.20;1719476;83;21486;-69
2021/07/18 04:12:12;;;;;;;18.12;11.90;;;;;;;30.04;100.00;98864.27;1719164;83;21090;-69
2021/07/18 04:14:39;;;;;;;17.17;13.22;;;;;;;30.00;100.00;98861.67;1719293;82;21003;-69
2021/07/18 04:17:05;;;;;;;14.00;12.35;;;;;;;30.07;100.00;98858.50;1719321;82;21804;-69
2021/07/18 04:19:32;;;;;;;13.90;12.13;;;;;;;30.29;100.00;98851.11;1719184;83;20939;-69
2021/07/18 04:21:58;;;;;;;17.62;12.90;;;;;;;30.59;100.00;98855.58;1719152;83;20971;-69
2021/07/18 04:24:25;;;;;;;15.68;11.97;;;;;;;30.74;100.00;98866.95;1719249;83;21039;-69
2021/07/18 04:26:52;;;;;;;17.35;12.47;;;;;;;30.81;100.00;98867.75;1719172;83;21057;-68
2021/07/18 04:29:18;;;;;;;15.15;12.25;;;;;;;30.69;100.00;98862.72;1719290;82;21106;-68
2021/07/18 04:31:45;;;;;;;18.40;12.18;;;;;;;30.65;99.22;98854.76;1719163;83;21535;-68
2021/07/18 04:34:12;;;;;;;14.83;13.35;;;;;;;30.55;98.46;98851.68;1719342;82;21086;-68
2021/07/18 04:36:40;;;;;;;15.78;12.00;;;;;;;30.60;98.52;98851.03;1719163;82;21026;-68
2021/07/18 04:39:07;;;;;;;14.40;13.05;;;;;;;30.68;97.08;98861.06;1719374;83;21431;-68
2021/07/18 04:41:34;;;;;;;15.70;12.63;;;;;;;30.60;94.89;98864.45;1719152;83;21143;-69
2021/07/18 04:44:01;;;;;;;21.17;13.30;;;;;;;30.64;94.93;98858.47;1719162;83;20997;-69
2021/07/18 04:46:28;;;;;;;16.97;13.18;;;;;;;30.79;96.32;98858.25;1719403;83;21066;-69
2021/07/18 04:48:54;;;;;;;13.95;12.53;;;;;;;31.14;97.77;98854.84;1719318;83;21015;-70
2021/07/18 04:51:20;;;;;;;14.20;12.85;;;;;;;31.51;94.35;98853.27;1719118;83;20963;-69
2021/07/18 04:53:47;;;;;;;18.98;13.38;;;;;;;31.61;92.43;98850.11;1718132;83;21144;-69
2021/07/18 04:56:15;;;;;;;15.98;13.13;;;;;;;31.81;92.01;98840.94;1711103;84;21539;-70
2021/07/18 04:58:41;;;;;;;13.18;11.97;;;;;;;32.07;91.74;98838.62;1710853;83;20952;-69
2021/07/18 05:01:08;;;;;;;17.62;13.68;;;;;;;32.29;89.64;98843.16;1711009;84;21205;-69
2021/07/18 05:03:36;;;;;;;14.58;13.10;;;;;;;32.47;82.61;98851.30;1711059;82;21007;-67
2021/07/18 05:06:05;;;;;;;22.17;13.45;;;;;;;32.47;78.56;98859.38;1710913;84;21137;-66
2021/07/18 05:08:30;;;;;;;16.57;14.15;;;;;;;32.43;73.84;98849.26;1710797;83;20952;-66
2021/07/18 05:10:57;;;;;;;17.45;14.53;;;;;;;32.53;64.89;98842.87;1711029;83;20956;-66
2021/07/18 05:13:24;;;;;;;17.10;14.60;;;;;;;32.64;57.95;98846.19;1711098;84;21475;-67
2021/07/18 05:15:51;;;;;;;16.62;14.90;;;;;;;32.75;54.10;98838.78;1711033;83;20983;-67
2021/07/18 05:18:17;;;;;;;23.12;17.87;;;;;;;32.84;51.87;98838.78;1710952;84;21052;-67
2021/07/18 05:20:44;;;;;;;27.37;16.27;;;;;;;32.91;50.82;98832.52;1711143;84;21534;-67
2021/07/18 05:23:11;;;;;;;17.82;15.48;;;;;;;32.98;51.22;98825.17;1711135;83;20991;-67
2021/07/18 05:25:38;;;;;;;16.97;14.53;;;;;;;32.96;50.44;98824.08;1710919;84;20956;-67
2021/07/18 05:28:05;;;;;;;18.55;15.40;;;;;;;33.06;50.35;98828.41;1710932;83;21039;-66
2021/07/18 05:30:31;;;;;;;17.77;16.02;;;;;;;33.25;49.66;98827.06;1710996;82;21059;-66
2021/07/18 05:32:58;;;;;;;26.07;15.85;;;;;;;33.52;50.14;98830.59;1711142;84;21450;-66
2021/07/18 05:35:24;;;;;;;20.23;14.78;;;;;;;33.82;49.38;98831.16;1711282;83;21015;-67
2021/07/18 05:37:51;;;;;;;20.10;15.45;;;;;;;33.94;48.14;98835.27;1710837;83;21899;-67
2021/07/18 05:40:17;;;;;;;30.12;17.20;;;;;;;34.00;48.35;98824.88;1711043;83;20960;-66
2021/07/18 05:42:44;;;;;;;18.27;16.67;;;;;;;34.08;47.29;98825.39;1711607;83;21108;-67
2021/07/18 05:45:13;;;;;;;18.77;16.62;;;;;;;34.20;46.78;98816.78;1711107;84;20998;-68
2021/07/18 05:47:39;;;;;;;21.52;15.55;;;;;;;34.34;46.05;98828.77;1711375;83;21012;-67
2021/07/18 05:50:08;;;;;;;25.77;15.95;;;;;;;34.40;45.22;98830.52;1711350;83;21004;-67
2021/07/18 05:52:36;;;;;;;18.80;16.00;;;;;;;34.41;44.76;98826.23;1711430;83;21022;-67
2021/07/18 05:55:04;;;;;;;18.40;16.25;;;;;;;34.43;45.23;98833.58;1711007;83;21293;-67
2021/07/18 05:57:31;;;;;;;35.35;17.80;;;;;;;34.38;44.52;98836.15;1710987;83;20948;-66
2021/07/18 05:59:58;;;;;;;17.65;15.90;;;;;;;34.09;45.11;98842.41;1711143;84;21012;-67
2021/07/18 06:02:24;;;;;;;27.13;17.20;;;;;;;33.86;45.83;98837.22;1711173;84;21491;-67
2021/07/18 06:04:50;;;;;;;33.18;18.27;;;;;;;33.76;46.73;98841.50;1711102;83;21409;-67
2021/07/18 06:07:18;;;;;;;22.98;17.77;;;;;;;33.72;47.49;98838.43;1711094;83;20884;-68
2021/07/18 06:09:45;;;;;;;17.10;15.40;;;;;;;33.63;46.82;98841.13;1711043;84;21054;-67
2021/07/18 06:12:12;;;;;;;18.75;16.80;;;;;;;33.41;46.21;98843.47;1711113;83;20963;-68
2021/07/18 06:14:39;;;;;;;18.37;15.85;;;;;;;33.06;47.26;98840.53;1711198;84;20967;-67
2021/07/18 06:17:07;;;;;;;23.42;17.37;;;;;;;32.86;47.85;98833.17;1711132;84;21172;-67
2021/07/18 06:19:33;;;;;;;17.55;15.75;;;;;;;32.68;48.17;98839.84;1711404;82;21095;-67
2021/07/18 06:22:00;;;;;;;25.95;15.53;;;;;;;32.54;48.30;98843.18;1710962;83;20944;-68
2021/07/18 06:24:27;;;;;;;18.73;16.02;;;;;;;32.48;48.26;98844.88;1711119;83;20968;-67
2021/07/18 06:26:53;;;;;;;28.12;16.15;;;;;;;32.46;48.36;98846.95;1711101;84;21542;-68
2021/07/18 06:29:19;;;;;;;35.88;18.50;;;;;;;32.48;48.64;98854.82;1711268;83;20968;-68
2021/07/18 06:31:46;;;;;;;24.55;16.57;;;;;;;32.46;48.73;98852.34;1711137;83;21071;-68
2021/07/18 06:34:12;;;;;;;25.50;16.07;;;;;;;32.36;49.05;98847.98;1711171;84;21046;-68
2021/07/18 06:36:39;;;;;;;19.95;15.38;;;;;;;32.22;49.50;98849.63;1711140;83;21008;-69
2021/07/18 06:39:05;;;;;;;22.37;16.93;;;;;;;31.97;49.79;98846.36;1711183;83;21534;-68
2021/07/18 06:41:32;;;;;;;18.85;15.83;;;;;;;31.76;50.02;98852.88;1711111;84;21098;-68
2021/07/18 06:43:58;;;;;;;22.95;16.65;;;;;;;31.58;50.17;98855.39;1711091;84;21137;-68
2021/07/18 06:46:25;;;;;;;17.37;15.38;;;;;;;31.39;50.81;98846.37;1710981;83;21066;-68
2021/07/18 06:48:51;;;;;;;19.45;16.77;;;;;;;31.21;51.52;98850.25;1711197;84;20999;-68
2021/07/18 06:51:18;;;;;;;19.55;16.50;;;;;;;31.03;52.11;98845.52;1710984;83;21003;-68
2021/07/18 06:53:45;;;;;;;25.00;17.05;;;;;;;30.94;52.42;98847.30;1711119;83;20999;-67
2021/07/18 06:56:13;;;;;;;22.32;16.20;;;;;;;30.87;52.46;98843.80;1717975;82;21945;-67
2021/07/18 06:58:39;;;;;;;40.03;16.67;;;;;;;30.73;52.49;98844.34;1719385;82;21484;-67
2021/07/18 07:01:06;;;;;;;35.58;16.75;;;;;;;30.60;52.53;98845.16;1719330;83;21042;-68
2021/07/18 07:03:34;;;;;;;20.30;18.25;;;;;;;30.49;53.13;98845.23;1719191;83;21050;-67
2021/07/18 07:06:02;;;;;;;18.48;16.17;;;;;;;30.37;53.58;98850.09;1719292;83;21581;-68
2021/07/18 07:08:30;;;;;;;28.30;14.87;;;;;;;30.26;54.13;98846.66;1719393;82;21973;-68
2021/07/18 07:10:58;;;;;;;16.80;14.43;;;;;;;30.19;54.25;98849.33;1719216;83;20987;-68
2021/07/18 07:13:26;;;;;;;15.83;13.98;;;;;;;30.13;54.18;98848.31;1719261;83;21050;-68
2021/07/18 07:15:53;;;;;;;23.47;17.82;;;;;;;30.10;54.07;98842.01;1719489;83;21031;-69
2021/07/18 07:18:19;;;;;;;24.30;17.17;;;;;;;30.06;54.06;98854.68;1719125;83;20982;-68
2021/07/18 07:20:46;;;;;;;21.40;14.85;;;;;;;29.98;53.88;98853.00;1719253;83;21187;-68
2021/07/18 07:23:12;;;;;;;15.60;13.93;;;;;;;29.96;54.67;98848.86;1719165;83;21025;-68
2021/07/18 07:25:39;;;;;;;17.73;15.43;;;;;;;29.97;54.38;98853.20;1719160;83;20961;-68
2021/07/18 07:28:06;;;;;;;20.60;13.70;;;;;;;29.91;54.16;98857.51;1719304;82;21010;-68
2021/07/18 07:30:36;;;;;;;17.02;12.53;;;;;;;29.87;54.38;98850.89;1719275;83;21002;-68
2021/07/18 07:33:03;;;;;;;16.30;13.00;;;;;;;29.90;54.27;98847.81;1719158;82;21171;-67
2021/07/18 07:35:30;;;;;;;13.13;11.75;;;;;;;29.97;54.92;98846.50;1719154;83;21002;-68
2021/07/18 07:37:57;;;;;;;20.12;12.58;;;;;;;30.04;53.88;98833.42;1719078;83;20987;-67
2021/07/18 07:40:24;;;;;;;19.60;11.95;;;;;;;30.08;53.72;98846.74;1719152;82;21956;-68
2021/07/18 07:42:50;;;;;;;14.18;12.20;;;;;;;30.13;52.98;98847.48;1719261;83;20959;-68
2021/07/18 07:45:17;;;;;;;14.20;12.78;;;;;;;30.17;53.47;98843.88;1719555;82;21802;-68
2021/07/18 07:47:43;;;;;;;21.85;12.45;;;;;;;30.18;53.31;98840.17;1719046;82;21607;-67
2021/07/18 07:50:12;;;;;;;14.38;12.88;;;;;;;30.18;53.89;98842.31;1719120;82;20951;-68
2021/07/18 07:52:38;;;;;;;19.90;13.15;;;;;;;30.20;53.70;98840.25;1719402;82;20963;-67
2021/07/18 07:55:07;;;;;;;20.32;12.73;;;;;;;30.21;53.80;98837.88;1717058;82;21590;-67
2021/07/18 07:57:33;;;;;;;14.55;12.75;;;;;;;30.24;54.45;98838.81;1711031;84;21805;-67
2021/07/18 08:00:03;;;;;;;13.03;11.73;;;;;;;30.27;54.36;98842.95;1710860;83;20952;-67
2021/07/18 08:02:31;;;;;;;15.65;12.13;;;;;;;30.31;54.25;98837.49;1710652;83;20964;-67
2021/07/18 08:04:58;;;;;;;14.85;12.00;;;;;;;30.38;53.21;98840.98;1711047;83;21458;-68
2021/07/18 08:07:24;;;;;;;12.75;11.55;;;;;;;30.41;52.67;98841.41;1711064;84;21011;-68
2021/07/18 08:09:52;;;;;;;16.25;12.20;;;;;;;30.43;52.61;98841.20;1711135;82;21957;-68
2021/07/18 08:12:18;;;;;;;11.65;10.45;;;;;;;30.47;53.03;98843.79;1710864;84;20950;-67
2021/07/18 08:14:45;;;;;;;10.98;9.90;;;;;;;30.48;52.16;98841.42;1710930;84;21003;-67
2021/07/18 08:17:14;;;;;;;12.33;10.70;;;;;;;30.51;51.90;98847.72;1711318;84;21393;-68
2021/07/18 08:19:41;;;;;;;12.63;11.38;;;;;;;30.55;51.30;98844.11;1711062;84;20956;-67
2021/07/18 08:22:08;;;;;;;11.43;10.23;;;;;;;30.53;50.34;98834.92;1710931;82;21063;-68
2021/07/18 08:24:36;;;;;;;12.05;10.88;;;;;;;30.52;50.36;98838.64;1710975;84;20989;-67
2021/07/18 08:27:03;;;;;;;10.72;9.63;;;;;;;30.59;50.71;98839.47;1710901;83;20951;-67
2021/07/18 08:29:29;;;;;;;22.90;19.02;;;;;;;30.66;49.85;98838.14;1711256;83;21546;-67
2021/07/18 08:31:58;;;;;;;19.27;14.78;;;;;;;30.74;50.03;98838.77;1710948;84;20991;-67
2021/07/18 08:34:26;;;;;;;24.35;15.20;;;;;;;30.81;50.28;98844.10;1711098;83;21135;-67
2021/07/18 08:36:54;;;;;;;13.60;10.63;;;;;;;30.89;50.72;98837.70;1710970;82;20959;-67
2021/07/18 08:39:20;;;;;;;10.05;9.05;;;;;;;30.98;48.68;98841.28;1710950;83;21007;-69
2021/07/18 08:41:47;;;;;;;11.90;9.15;;;;;;;31.03;47.34;98839.31;1711167;83;21007;-67
2021/07/18 08:44:14;;;;;;;10.48;9.08;;;;;;;31.07;47.92;98838.70;1711095;84;21019;-68
2021/07/18 08:46:41;;;;;;;10.18;8.48;;;;;;;31.12;46.93;98838.93;1711181;83;21115;-67
2021/07/18 08:49:08;;;;;;;8.70;7.80;;;;;;;31.18;46.85;98832.69;1710945;83;20960;-67
2021/07/18 08:51:36;;;;;;;9.35;8.55;;;;;;;31.25;45.81;98824.63;1710920;82;21007;-67
2021/07/18 08:54:04;;;;;;;14.55;8.85;;;;;;;31.33;45.43;98824.40;1711100;83;21066;-67
2021/07/18 08:56:35;;;;;;;10.68;9.08;;;;;;;31.38;45.62;98821.05;1716818;83;21130;-66
2021/07/18 08:59:07;;;;;;;;;;;;;;;31.40;45.83;98822.48;1721749;82;21139;-67
2021/07/18 09:01:34;;;;;;;10.58;9.68;;;;;;;31.41;46.10;98820.11;1719123;83;21068;-67
2021/07/18 09:04:01;;;;;;;13.08;10.30;;;;;;;31.43;45.93;98823.93;1719206;83;20954;-67
2021/07/18 09:06:43;;;;;;;12.05;10.10;;;;;;;31.46;45.93;98822.17;1719181;82;21427;-67
2021/07/18 09:09:17;;;;;;;10.28;9.38;;;;;;;31.49;45.32;98815.02;1719433;83;21002;-67
2021/07/18 09:11:57;;;;;;;20.20;12.28;;;;;;;31.59;45.52;98814.03;1718650;83;21109;-66
2021/07/18 09:14:24;;;;;;;17.85;12.18;;;;;;;31.70;45.81;98809.38;1719201;82;21004;-67
2021/07/18 09:16:51;;;;;;;17.37;11.73;;;;;;;31.74;44.90;98814.63;1719194;83;21008;-66
2021/07/18 09:19:32;;;;;;;19.12;11.22;;;;;;;31.78;45.14;98806.93;1719101;83;20999;-66
2021/07/18 09:22:12;;;;;;;16.12;9.73;;;;;;;31.82;44.80;98813.02;1719737;83;20962;-66
2021/07/18 09:24:49;;;;;;;15.32;9.85;;;;;;;31.92;45.52;98811.21;1719259;83;21749;-66
2021/07/18 09:27:27;;;;;;;16.90;14.38;;;;;;;32.06;44.79;98809.25;1712083;83;20975;-66
2021/07/18 09:30:12;;;;;;;15.20;12.37;;;;;;;32.20;44.38;98813.52;1719316;82;20955;-68
2021/07/18 09:32:47;;;;;;;13.53;10.63;;;;;;;32.28;44.02;98813.78;1719144;82;20963;-67
2021/07/18 09:35:18;;;;;;;14.15;10.58;;;;;;;32.31;44.25;98808.78;1719107;83;21015;-67
2021/07/18 09:37:48;;;;;;;12.47;10.68;;;;;;;32.35;43.94;98805.14;1719136;83;21129;-67
2021/07/18 09:40:18;;;;;;;10.48;9.43;;;;;;;32.45;43.67;98807.62;1719024;83;21109;-67
2021/07/18 09:42:52;;;;;;;11.15;9.95;;;;;;;32.60;43.06;98811.31;1719730;83;20999;-67
2021/07/18 09:45:29;;;;;;;11.28;9.25;;;;;;;32.65;42.41;98808.80;1719271;83;20995;-67
2021/07/18 09:48:06;;;;;;;9.25;8.33;;;;;;;32.57;41.92;98810.96;1719206;83;21054;-66
2021/07/18 09:50:44;;;;;;;9.88;8.70;;;;;;;32.45;41.21;98816.22;1719121;83;21134;-67
2021/07/18 09:53:22;;;;;;;17.37;8.78;;;;;;;32.38;41.75;98821.65;1719544;83;20947;-66
2021/07/18 09:56:08;;;;;;;9.25;8.53;;;;;;;32.41;42.73;98815.01;1716455;82;20978;-67
2021/07/18 09:58:53;;;;;;;9.85;8.85;;;;;;;32.53;41.88;98818.13;1710845;84;20995;-66
2021/07/18 10:01:20;;;;;;;14.10;9.28;;;;;;;32.69;41.05;98810.52;1711198;82;20943;-67
2021/07/18 10:03:49;;;;;;;18.62;9.30;;;;;;;32.77;40.55;98809.77;1711053;82;21099;-67
2021/07/18 10:06:19;;;;;;;12.37;9.28;;;;;;;32.78;41.29;98807.86;1711043;83;21479;-67
2021/07/18 10:08:57;;;;;;;11.05;8.83;;;;;;;32.86;42.13;98812.97;1710546;83;21007;-67
2021/07/18 10:11:27;;;;;;;18.77;10.55;;;;;;;32.98;41.33;98811.17;1711110;83;21090;-67
2021/07/18 10:13:56;;;;;;;10.40;9.43;;;;;;;33.09;40.71;98805.58;1710626;83;21043;-67
2021/07/18 10:16:24;;;;;;;10.70;9.20;;;;;;;33.23;40.43;98808.41;1711292;82;21239;-66
2021/07/18 10:18:53;;;;;;;9.83;8.73;;;;;;;33.42;40.67;98803.34;1710822;82;21007;-67
2021/07/18 10:21:24;;;;;;;9.60;8.78;;;;;;;33.63;40.38;98796.64;1711043;83;20955;-66
2021/07/18 10:23:53;;;;;;;9.98;8.18;;;;;;;33.86;39.23;98799.45;1711008;84;21003;-66
2021/07/18 10:26:26;;;;;;;12.63;9.10;;;;;;;34.07;39.17;98797.28;1711324;83;20951;-66
2021/07/18 10:28:54;;;;;;;14.05;9.05;;;;;;;34.18;38.77;98798.64;1711139;83;21149;-66
2021/07/18 10:31:45;;;;;;;14.20;9.18;;;;;;;34.26;38.46;98794.80;1711130;84;21436;-67
2021/07/18 10:34:11;;;;;;;11.68;9.08;;;;;;;34.25;37.34;98795.84;1710564;82;20948;-67
2021/07/18 10:36:38;;;;;;;10.82;9.23;;;;;;;34.24;37.36;98792.85;1703105;84;21495;-67
2021/07/18 10:39:28;;;;;;;10.55;8.98;;;;;;;34.18;37.54;98795.13;1711085;83;21043;-67
2021/07/18 10:41:56;;;;;;;10.23;9.28;;;;;;;33.90;37.84;98805.22;1711201;84;21168;-66
2021/07/18 10:44:22;;;;;;;11.60;9.50;;;;;;;33.48;39.04;98797.05;1710945;84;21061;-66
2021/07/18 10:46:54;;;;;;;9.43;8.63;;;;;;;33.23;39.83;98796.81;1711187;83;21392;-67
2021/07/18 10:49:51;;;;;;;11.63;9.03;;;;;;;33.05;40.36;98798.47;1711323;83;21000;-67
2021/07/18 10:52:20;;;;;;;11.60;9.13;;;;;;;32.92;41.06;98795.10;1711187;83;20956;-67
2021/07/18 10:54:46;;;;;;;14.33;9.95;;;;;;;32.80;41.52;98795.83;1711018;84;21111;-67
2021/07/18 10:57:33;;;;;;;14.80;10.18;;;;;;;32.74;41.83;98792.70;1711309;83;21034;-67
2021/07/18 11:00:24;;;;;;;9.98;9.10;;;;;;;32.72;42.06;98794.75;1711226;84;20963;-68
2021/07/18 11:03:07;;;;;;;11.00;9.65;;;;;;;32.79;41.72;98792.01;1711060;84;21447;-67
2021/07/18 11:05:48;;;;;;;11.75;8.60;;;;;;;32.95;40.99;98794.66;1711042;83;21051;-68
2021/07/18 11:08:16;;;;;;;10.90;8.73;;;;;;;33.07;40.91;98778.86;1711161;82;21495;-67
2021/07/18 11:10:49;;;;;;;17.00;9.65;;;;;;;33.28;40.11;98780.83;1711024;83;21034;-67
2021/07/18 11:13:15;;;;;;;11.15;8.73;;;;;;;33.48;39.26;98773.31;1711172;82;21054;-66
2021/07/18 11:15:43;;;;;;;8.73;7.78;;;;;;;33.68;38.37;98768.46;1711090;82;21034;-67
2021/07/18 11:18:15;;;;;;;9.08;8.18;;;;;;;33.80;37.64;98768.52;1711147;83;21081;-67
2021/07/18 11:20:48;;;;;;;9.93;9.23;;;;;;;33.90;37.33;98762.05;1711235;83;21130;-67
2021/07/18 11:23:20;;;;;;;10.32;9.33;;;;;;;33.94;36.69;98759.20;1711016;84;21523;-67